Orbital elements of ARIANE 44LP+ R/B
| Launched | 27 March 1995 |
| Flight ended | – |
| Launch site | Europe's Spaceport, Kourou, French Guiana |
| Owner | France |
| NORAD ID | 23538 |
| Date fetched |
Epoch osculation |
Inc. [°] |
Ecc. | RA asc node [hr] |
Arg Peri. [°] |
Mean anom [°] |
Mean motion [rev/day] |
Abs. mag |
| Date fetched |
Epoch osculation |
Inc. [°] |
Ecc. | RA asc node [hr] |
Arg Peri. [°] |
Mean anom [°] |
Mean motion [rev/day] |
Abs. mag |
| 2026 May 07 17:58 | 2026 May 05 11:10:49 | 6.3904 | 0.60298 | 14.6029 | 296.9723 | 14.7552 | 3.97032 | 3.743 |
| 2026 May 06 17:57 | 2026 May 05 11:10:49 | 6.3904 | 0.60298 | 14.6029 | 296.9723 | 14.7552 | 3.97032 | 3.743 |
| 2026 May 05 17:57 | 2026 May 05 11:10:49 | 6.3904 | 0.60298 | 14.6029 | 296.9723 | 14.7552 | 3.97032 | 3.743 |
| 2026 May 04 17:57 | 2026 Apr 29 10:08:59 | 6.3926 | 0.60312 | 14.9338 | 287.1698 | 14.7552 | 3.97032 | 3.743 |
| 2026 May 03 17:57 | 2026 Apr 29 10:08:59 | 6.3926 | 0.60312 | 14.9338 | 287.1698 | 14.7552 | 3.97032 | 3.743 |
| 2026 May 02 17:57 | 2026 Apr 29 10:08:59 | 6.3926 | 0.60312 | 14.9338 | 287.1698 | 14.7552 | 3.97032 | 3.743 |
| 2026 May 01 17:56 | 2026 Apr 29 10:08:59 | 6.3926 | 0.60312 | 14.9338 | 287.1698 | 14.7552 | 3.97032 | 3.743 |
| 2026 Apr 30 17:56 | 2026 Apr 29 10:08:59 | 6.3926 | 0.60312 | 14.9338 | 287.1698 | 14.7552 | 3.97032 | 3.743 |
| 2026 Apr 29 17:57 | 2026 Apr 22 14:58:49 | 6.3962 | 0.60328 | 15.3063 | 276.1301 | 14.7552 | 3.97032 | 3.743 |
| 2026 Apr 28 17:56 | 2026 Apr 22 14:58:49 | 6.3962 | 0.60328 | 15.3063 | 276.1301 | 14.7552 | 3.97032 | 3.743 |
| 2026 Apr 27 17:58 | 2026 Apr 22 14:58:49 | 6.3962 | 0.60328 | 15.3063 | 276.1301 | 14.7552 | 3.97032 | 3.743 |
| 2026 Apr 26 17:58 | 2026 Apr 22 14:58:49 | 6.3962 | 0.60328 | 15.3063 | 276.1301 | 14.7552 | 3.97032 | 3.743 |
| 2026 Apr 25 17:58 | 2026 Apr 22 14:58:49 | 6.3962 | 0.60328 | 15.3063 | 276.1301 | 14.7552 | 3.97032 | 3.743 |
| 2026 Apr 24 17:59 | 2026 Apr 22 14:58:49 | 6.3962 | 0.60328 | 15.3063 | 276.1301 | 14.7552 | 3.97032 | 3.743 |
| 2026 Apr 23 17:57 | 2026 Apr 18 08:14:29 | 6.3980 | 0.60337 | 15.5416 | 269.1698 | 14.7552 | 3.97032 | 3.743 |
| 2026 Apr 22 17:57 | 2026 Apr 18 08:14:29 | 6.3980 | 0.60337 | 15.5416 | 269.1698 | 14.7552 | 3.97032 | 3.743 |
| 2026 Apr 21 17:57 | 2026 Apr 18 08:14:29 | 6.3980 | 0.60337 | 15.5416 | 269.1698 | 14.7552 | 3.97032 | 3.743 |
| 2026 Apr 20 17:57 | 2026 Apr 18 08:14:29 | 6.3980 | 0.60337 | 15.5416 | 269.1698 | 14.7552 | 3.97032 | 3.743 |
| 2026 Apr 19 17:58 | 2026 Apr 18 08:14:29 | 6.3980 | 0.60337 | 15.5416 | 269.1698 | 14.7552 | 3.97032 | 3.743 |
| 2026 Apr 18 17:56 | 2026 Apr 13 01:19:45 | 6.4007 | 0.60353 | 15.8323 | 260.5675 | 14.7552 | 3.97032 | 3.743 |
| 2026 Apr 16 17:57 | 2026 Apr 13 01:19:45 | 6.4007 | 0.60353 | 15.8323 | 260.5675 | 14.7552 | 3.97032 | 3.743 |
| 2026 Apr 14 17:57 | 2026 Apr 13 01:19:45 | 6.4007 | 0.60353 | 15.8323 | 260.5675 | 14.7552 | 3.97032 | 3.743 |
| 2026 Apr 13 17:57 | 2026 Apr 13 01:19:45 | 6.4007 | 0.60353 | 15.8323 | 260.5675 | 14.7552 | 3.97032 | 3.743 |
| 2026 Apr 12 17:57 | 2026 Apr 08 00:28:00 | 6.4039 | 0.60365 | 16.1096 | 252.3690 | 14.7552 | 3.97032 | 3.743 |
| 2026 Apr 11 17:57 | 2026 Apr 08 00:28:00 | 6.4039 | 0.60365 | 16.1096 | 252.3690 | 14.7552 | 3.97032 | 3.743 |
| 2026 Apr 10 17:58 | 2026 Apr 08 00:28:00 | 6.4039 | 0.60365 | 16.1096 | 252.3690 | 14.7552 | 3.97032 | 3.743 |